Terminal Aerodrome Forecast
Issued by NWS Springfield, MO

Home | Current Version | Previous Version | Text Only | Print | Product List | Glossary On
Versions: 1 2 3 4 5 6 7 8 9 10 11 12 13 14 15 16 17 18 19 20 21
000
FTUS43 KSGF 011100
TAFSGF
TAF
KSGF 011120Z 0112/0212 VRB04KT 4SM -FZDZ BR OVC003
     FM011600 34005KT P6SM OVC007
     FM012100 33006KT P6SM OVC015
     FM020400 03005KT 4SM BR OVC025=

USA.gov is the U.S. government's official web portal to all federal, state and local government web resources and services.